Time;durP1;ratioP1;P1;durP2;ratioP2;P2;SDS_P1;SDS_P2;PMS_P1;PMS_P2;Temp;Humidity;BMP_temperature;BMP_pressure;BME280_temperature;BME280_humidity;BME280_pressure;Samples;Min_cycle;Max_cycle;Signal;HPM_P1;HPM_P2
2023/09/18 00:00:21;;;;;;;13.40;8.05;;;;;;;-142.57;100.00;115900.28;5013219;28;20038;-77
2023/09/18 00:02:47;;;;;;;13.10;8.82;;;;;;;-142.57;100.00;115900.28;5014157;28;20041;-82
2023/09/18 00:05:15;;;;;;;15.30;8.98;;;;;;;-142.57;100.00;115900.28;5013907;28;20036;-83
2023/09/18 00:07:44;;;;;;;20.63;9.20;;;;;;;-142.57;100.00;115900.28;5014021;28;20042;-83
2023/09/18 00:10:11;;;;;;;15.00;9.07;;;;;;;-142.57;100.00;115900.28;5012843;28;20064;-82
2023/09/18 00:12:37;;;;;;;12.77;8.88;;;;;;;-142.57;100.00;115900.28;5014050;28;20045;-81
2023/09/18 00:15:04;;;;;;;15.65;8.95;;;;;;;-142.57;100.00;115900.28;5013120;28;20033;-80
2023/09/18 00:17:29;;;;;;;18.15;9.50;;;;;;;-142.57;100.00;115900.28;5014079;28;20041;-81
2023/09/18 00:19:55;;;;;;;20.55;9.20;;;;;;;-142.57;100.00;115900.28;5013814;28;20034;-81
2023/09/18 00:22:21;;;;;;;15.00;9.90;;;;;;;-142.57;100.00;115900.28;5013988;28;20038;-82
2023/09/18 00:24:47;;;;;;;11.20;9.20;;;;;;;-142.57;100.00;115900.28;5013902;28;20069;-82
2023/09/18 00:27:13;;;;;;;14.13;9.27;;;;;;;-142.57;100.00;115900.28;5007200;28;20493;-80
2023/09/18 00:29:39;;;;;;;12.75;9.25;;;;;;;-142.57;100.00;115900.28;4993993;28;20034;-81
2023/09/18 00:32:06;;;;;;;14.82;9.85;;;;;;;-142.57;100.00;115900.28;4997254;28;20027;-79
2023/09/18 00:34:34;;;;;;;19.23;8.82;;;;;;;-142.57;100.00;115900.28;4997316;28;20038;-80
2023/09/18 00:37:00;;;;;;;19.92;9.32;;;;;;;-142.57;100.00;115900.28;4993736;28;20034;-78
2023/09/18 00:39:26;;;;;;;19.58;8.77;;;;;;;-142.57;100.00;115900.28;4993539;28;20124;-79
2023/09/18 00:41:54;;;;;;;12.43;8.80;;;;;;;-142.57;100.00;115900.28;4993226;28;20034;-81
2023/09/18 00:44:21;;;;;;;15.77;9.25;;;;;;;-142.57;100.00;115900.28;4992470;28;20022;-81
2023/09/18 00:46:47;;;;;;;17.08;8.90;;;;;;;-142.57;100.00;115900.28;4992582;28;20034;-80
2023/09/18 00:49:14;;;;;;;19.85;9.98;;;;;;;-142.57;100.00;115900.28;4993840;28;20074;-83
2023/09/18 00:51:40;;;;;;;17.25;9.57;;;;;;;-142.57;100.00;115900.28;4993523;28;20041;-82
2023/09/18 00:54:06;;;;;;;13.88;10.00;;;;;;;-142.57;100.00;115900.28;4991721;28;20034;-79
2023/09/18 00:56:33;;;;;;;20.40;11.52;;;;;;;-142.57;100.00;115900.28;4993180;28;20358;-79
2023/09/18 00:59:00;;;;;;;16.40;10.82;;;;;;;-142.57;100.00;115900.28;4991793;28;20089;-80
2023/09/18 01:01:25;;;;;;;17.00;10.10;;;;;;;-142.57;100.00;115900.28;4993733;28;20046;-81
2023/09/18 01:03:53;;;;;;;15.70;10.25;;;;;;;-142.57;100.00;115900.28;4992296;28;20049;-80
2023/09/18 01:06:20;;;;;;;22.25;10.60;;;;;;;-142.57;100.00;115900.28;4992522;28;20057;-82
2023/09/18 01:08:49;;;;;;;14.40;9.45;;;;;;;-142.57;100.00;115900.28;4995988;28;20097;-83
2023/09/18 01:11:26;;;;;;;14.93;9.88;;;;;;;-142.57;100.00;115900.28;4997354;28;20034;-82
2023/09/18 01:14:06;;;;;;;11.68;9.43;;;;;;;-142.57;100.00;115900.28;4996928;28;20030;-82
2023/09/18 01:16:45;;;;;;;14.82;9.88;;;;;;;-142.57;100.00;115900.28;4996197;28;20034;-81
2023/09/18 01:19:11;;;;;;;18.35;10.32;;;;;;;-142.57;100.00;115900.28;4996231;28;20033;-82
2023/09/18 01:21:37;;;;;;;19.15;11.35;;;;;;;-142.57;100.00;115900.28;4995332;28;20038;-79
2023/09/18 01:24:03;;;;;;;14.65;9.65;;;;;;;-142.57;100.00;115900.28;4995763;28;20038;-83
2023/09/18 01:26:28;;;;;;;15.18;10.63;;;;;;;-142.57;100.00;115900.28;4996115;28;20385;-82
2023/09/18 01:28:54;;;;;;;12.52;10.05;;;;;;;-142.57;100.00;115900.28;4994893;28;20040;-82
2023/09/18 01:31:20;;;;;;;18.67;10.77;;;;;;;-142.57;100.00;115900.28;4993126;28;20039;-81
2023/09/18 01:33:47;;;;;;;17.95;10.38;;;;;;;-142.57;100.00;115900.28;4996098;28;20031;-80
2023/09/18 01:36:14;;;;;;;19.05;11.60;;;;;;;-142.57;100.00;115900.28;4995952;28;20414;-82
2023/09/18 01:38:41;;;;;;;16.50;10.68;;;;;;;-142.57;100.00;115900.28;4995921;28;20158;-81
2023/09/18 01:41:06;;;;;;;14.68;11.15;;;;;;;-142.57;100.00;115900.28;4995957;28;20044;-81
2023/09/18 01:43:32;;;;;;;20.08;10.32;;;;;;;-142.57;100.00;115900.28;4994592;28;20034;-79
2023/09/18 01:45:58;;;;;;;15.38;10.85;;;;;;;-142.57;100.00;115900.28;4995637;28;20031;-81
2023/09/18 01:48:23;;;;;;;15.98;10.77;;;;;;;-142.57;100.00;115900.28;4994353;28;20097;-81
2023/09/18 01:50:49;;;;;;;15.50;11.27;;;;;;;-142.57;100.00;115900.28;4995595;28;20077;-82
2023/09/18 01:53:16;;;;;;;14.60;11.15;;;;;;;-142.57;100.00;115900.28;4995603;28;20049;-80
2023/09/18 01:55:44;;;;;;;14.15;10.75;;;;;;;-142.57;100.00;115900.28;4994677;28;20062;-81
2023/09/18 01:58:10;;;;;;;17.08;11.90;;;;;;;-142.57;100.00;115900.28;4994210;28;20034;-80
2023/09/18 02:00:36;;;;;;;17.52;12.43;;;;;;;-142.57;100.00;115900.28;4995539;28;20370;-81
2023/09/18 02:03:02;;;;;;;19.02;11.15;;;;;;;-142.57;100.00;115900.28;4995697;28;20154;-78
2023/09/18 02:05:30;;;;;;;18.33;11.75;;;;;;;-142.57;100.00;115900.28;4995459;28;20393;-83
2023/09/18 02:07:56;;;;;;;20.35;14.15;;;;;;;-142.57;100.00;115900.28;4995625;28;20037;-84
2023/09/18 02:10:21;;;;;;;20.77;12.73;;;;;;;-142.57;100.00;115900.28;4995351;28;20042;-81
2023/09/18 02:12:47;;;;;;;15.82;11.80;;;;;;;-142.57;100.00;115900.28;4995239;28;20121;-81
2023/09/18 02:15:12;;;;;;;19.85;12.23;;;;;;;-142.57;100.00;115900.28;4995452;28;20038;-81
2023/09/18 02:17:38;;;;;;;17.13;11.93;;;;;;;-142.57;100.00;115900.28;4993914;28;20030;-82
2023/09/18 02:20:11;;;;;;;14.10;11.15;;;;;;;-142.57;100.00;115900.28;4993422;28;20034;-82
2023/09/18 02:22:38;;;;;;;16.85;11.75;;;;;;;-142.57;100.00;115900.28;4994223;28;20038;-82
2023/09/18 02:25:04;;;;;;;16.17;11.55;;;;;;;-142.57;100.00;115900.28;4995303;28;20030;-83
2023/09/18 02:27:30;;;;;;;20.88;12.25;;;;;;;-142.57;100.00;115900.28;4994935;28;20034;-79
2023/09/18 02:29:56;;;;;;;19.65;13.02;;;;;;;-142.57;100.00;115900.28;4995271;28;20080;-81
2023/09/18 02:32:21;;;;;;;18.73;12.45;;;;;;;-142.57;100.00;115900.28;4993714;28;20105;-80
2023/09/18 02:34:47;;;;;;;18.73;11.93;;;;;;;-142.57;100.00;115900.28;4994971;28;20038;-81
2023/09/18 02:37:12;;;;;;;19.92;12.43;;;;;;;-142.57;100.00;115900.28;4994528;28;20077;-80
2023/09/18 02:39:37;;;;;;;16.23;11.55;;;;;;;-142.57;100.00;115900.28;4994834;28;20041;-81
2023/09/18 02:42:03;;;;;;;17.42;12.18;;;;;;;-142.57;100.00;115900.28;4994937;28;20039;-85
2023/09/18 02:44:32;;;;;;;17.75;12.48;;;;;;;-142.57;100.00;115900.28;4994913;28;20036;-80
2023/09/18 02:47:00;;;;;;;13.65;9.75;;;;;;;-142.57;100.00;115900.28;4993822;28;20121;-81
2023/09/18 02:49:26;;;;;;;15.82;11.43;;;;;;;-142.57;100.00;115900.28;4993937;28;20045;-84
2023/09/18 02:51:51;;;;;;;17.75;11.55;;;;;;;-142.57;100.00;115900.28;4993502;28;20026;-82
2023/09/18 02:54:20;;;;;;;14.02;10.90;;;;;;;-142.57;100.00;115900.28;4994289;28;20038;-79
2023/09/18 02:56:46;;;;;;;19.50;12.63;;;;;;;-142.57;100.00;115900.28;4994971;28;20027;-81
2023/09/18 02:59:11;;;;;;;18.85;10.88;;;;;;;-142.57;100.00;115900.28;4994937;28;20512;-82
2023/09/18 03:01:37;;;;;;;20.73;11.95;;;;;;;-142.57;100.00;115900.28;5001471;28;20066;-80
2023/09/18 03:04:03;;;;;;;20.17;11.43;;;;;;;-142.57;100.00;115900.28;5009491;28;20362;-80
2023/09/18 03:06:29;;;;;;;14.75;10.48;;;;;;;-142.57;100.00;115900.28;5009295;28;20121;-79
2023/09/18 03:08:57;;;;;;;17.45;11.25;;;;;;;-142.57;100.00;115900.28;5009697;28;20045;-82
2023/09/18 03:11:27;;;;;;;22.13;12.43;;;;;;;-142.57;100.00;115900.28;5009817;28;20034;-80
2023/09/18 03:13:53;;;;;;;18.52;12.20;;;;;;;-142.57;100.00;115900.28;5009848;28;20434;-83
2023/09/18 03:16:19;;;;;;;17.58;11.73;;;;;;;-142.57;100.00;115900.28;5009403;28;20034;-82
2023/09/18 03:18:45;;;;;;;17.75;11.48;;;;;;;-142.57;100.00;115900.28;5009802;28;20045;-79
2023/09/18 03:21:11;;;;;;;19.40;12.77;;;;;;;-142.57;100.00;115900.28;5009638;28;20030;-82
2023/09/18 03:23:36;;;;;;;18.33;12.13;;;;;;;-142.57;100.00;115900.28;5009599;28;20049;-82
2023/09/18 03:26:02;;;;;;;20.17;12.50;;;;;;;-142.57;100.00;115900.28;5009740;28;20041;-79
2023/09/18 03:28:28;;;;;;;17.73;12.70;;;;;;;-142.57;100.00;115900.28;5009169;28;20493;-80
2023/09/18 03:30:54;;;;;;;18.42;12.55;;;;;;;-142.57;100.00;115900.28;5008292;28;20384;-82
2023/09/18 03:33:22;;;;;;;20.92;12.63;;;;;;;-142.57;100.00;115900.28;4992841;28;20058;-78
2023/09/18 03:35:49;;;;;;;22.38;13.27;;;;;;;-142.57;100.00;115900.28;4996235;28;20117;-80
2023/09/18 03:38:18;;;;;;;20.13;12.82;;;;;;;-142.57;100.00;115900.28;4992772;28;20039;-81
2023/09/18 03:40:43;;;;;;;15.68;12.95;;;;;;;-142.57;100.00;115900.28;5008333;28;20030;-83
2023/09/18 03:43:10;;;;;;;24.83;13.45;;;;;;;-142.57;100.00;115900.28;4992671;28;20117;-84
2023/09/18 03:45:36;;;;;;;20.15;13.18;;;;;;;-142.57;100.00;115900.28;4992118;28;20125;-80
2023/09/18 03:48:02;;;;;;;21.48;12.80;;;;;;;-142.57;100.00;115900.28;4992664;28;20125;-81
2023/09/18 03:50:28;;;;;;;15.57;12.73;;;;;;;-142.57;100.00;115900.28;5010541;28;20080;-81
2023/09/18 03:52:54;;;;;;;18.63;12.80;;;;;;;-142.57;100.00;115900.28;4993765;28;20109;-81
2023/09/18 03:55:19;;;;;;;15.95;12.88;;;;;;;-142.57;100.00;115900.28;4994138;28;20049;-81
2023/09/18 03:57:47;;;;;;;15.48;12.23;;;;;;;-142.57;100.00;115900.28;5013212;28;20037;-82
2023/09/18 04:00:13;;;;;;;16.45;11.85;;;;;;;-142.57;100.00;115900.28;5019594;28;20042;-80
2023/09/18 04:02:40;;;;;;;16.02;11.65;;;;;;;-142.57;100.00;115900.28;5030968;28;20037;-81
2023/09/18 04:05:06;;;;;;;14.05;11.75;;;;;;;-142.57;100.00;115900.28;5034574;28;20033;-79
2023/09/18 04:07:32;;;;;;;17.85;11.68;;;;;;;-142.57;100.00;115900.28;5033922;28;20030;-81
2023/09/18 04:09:59;;;;;;;20.73;11.93;;;;;;;-142.57;100.00;115900.28;5034255;28;20025;-78
2023/09/18 04:12:25;;;;;;;18.50;10.95;;;;;;;-142.57;100.00;115900.28;5032696;28;20085;-79
2023/09/18 04:14:51;;;;;;;21.98;12.40;;;;;;;-142.57;100.00;115900.28;4999231;28;20396;-79
2023/09/18 04:17:16;;;;;;;21.20;12.30;;;;;;;-142.57;100.00;115900.28;5013070;28;20030;-83
2023/09/18 04:19:43;;;;;;;19.13;13.45;;;;;;;-142.57;100.00;115900.28;5013328;28;20033;-84
2023/09/18 04:22:09;;;;;;;22.17;13.85;;;;;;;-142.57;100.00;115900.28;5011892;28;20053;-85
2023/09/18 04:24:34;;;;;;;24.52;14.10;;;;;;;-142.57;100.00;115900.28;5012221;28;20038;-84
2023/09/18 04:27:00;;;;;;;19.40;13.80;;;;;;;-142.57;100.00;115900.28;5013237;28;20058;-83
2023/09/18 04:29:26;;;;;;;17.40;12.68;;;;;;;-142.57;100.00;115900.28;5013463;28;20040;-84
2023/09/18 04:31:53;;;;;;;17.58;12.05;;;;;;;-142.57;100.00;115900.28;5028379;28;20443;-84
2023/09/18 04:34:20;;;;;;;17.27;12.80;;;;;;;-142.57;100.00;115900.28;5011660;28;20443;-83
2023/09/18 04:36:46;;;;;;;45.78;14.15;;;;;;;-142.57;100.00;115900.28;5011861;28;20034;-80
2023/09/18 04:39:11;;;;;;;35.03;14.27;;;;;;;-142.57;100.00;115900.28;5009051;28;20073;-78
2023/09/18 04:41:37;;;;;;;21.08;13.48;;;;;;;-142.57;100.00;115900.28;5009721;28;20030;-81
2023/09/18 04:44:05;;;;;;;37.45;14.57;;;;;;;-142.57;100.00;115900.28;5015740;28;20428;-77
2023/09/18 04:46:34;;;;;;;22.70;13.63;;;;;;;-142.57;100.00;115900.28;5015335;28;20052;-77
2023/09/18 04:49:03;;;;;;;24.95;14.20;;;;;;;-142.57;100.00;115900.28;5015876;28;20493;-82
2023/09/18 04:51:33;;;;;;;28.10;15.48;;;;;;;-142.57;100.00;115900.28;5018699;28;20045;-83
2023/09/18 04:53:59;;;;;;;34.28;14.90;;;;;;;-142.57;100.00;115900.28;5015207;28;20141;-81
2023/09/18 04:56:26;;;;;;;24.02;14.15;;;;;;;-142.57;100.00;115900.28;5014237;28;20042;-84
2023/09/18 04:58:52;;;;;;;24.70;13.75;;;;;;;-142.57;100.00;115900.28;5014992;28;20473;-82
2023/09/18 05:01:18;;;;;;;23.48;14.07;;;;;;;-142.57;100.00;115900.28;5015247;28;20038;-85
2023/09/18 05:03:44;;;;;;;27.55;14.52;;;;;;;-142.57;100.00;115900.28;5016073;28;20124;-78
2023/09/18 05:06:11;;;;;;;22.70;13.68;;;;;;;-142.57;100.00;115900.28;5014762;28;20172;-80
2023/09/18 05:08:36;;;;;;;20.08;13.85;;;;;;;-142.57;100.00;115900.28;5016331;28;20559;-80
2023/09/18 05:11:02;;;;;;;21.67;14.05;;;;;;;-142.57;100.00;115900.28;5016168;28;20034;-81
2023/09/18 05:13:27;;;;;;;29.65;13.88;;;;;;;-142.57;100.00;115900.28;5015083;28;20037;-80
2023/09/18 05:15:53;;;;;;;21.67;14.10;;;;;;;-142.57;100.00;115900.28;5016534;28;20477;-80
2023/09/18 05:18:19;;;;;;;24.27;14.75;;;;;;;-142.57;100.00;115900.28;5016369;28;20026;-79
2023/09/18 05:20:45;;;;;;;31.58;13.88;;;;;;;-142.57;100.00;115900.28;5016200;28;20040;-81
2023/09/18 05:23:10;;;;;;;26.80;14.25;;;;;;;-142.57;100.00;115900.28;5015380;28;20041;-80
2023/09/18 05:25:38;;;;;;;23.20;13.88;;;;;;;-142.57;100.00;115900.28;5016093;28;20524;-79
2023/09/18 05:28:05;;;;;;;27.45;15.63;;;;;;;-142.57;100.00;115900.28;5015109;28;20388;-81
2023/09/18 05:30:34;;;;;;;26.08;16.83;;;;;;;-142.57;100.00;115900.28;5016080;28;20123;-83
2023/09/18 05:33:07;;;;;;;26.20;14.60;;;;;;;-142.57;100.00;115900.28;5016122;28;20513;-80
2023/09/18 05:35:40;;;;;;;21.52;14.30;;;;;;;-142.57;100.00;115900.28;5015087;28;20048;-80
2023/09/18 05:38:06;;;;;;;29.77;18.08;;;;;;;-142.57;100.00;115900.28;5015795;28;20052;-81
2023/09/18 05:40:32;;;;;;;25.05;18.08;;;;;;;-142.57;100.00;115900.28;5015348;28;20041;-84
2023/09/18 05:42:57;;;;;;;26.30;17.45;;;;;;;-142.57;100.00;115900.28;5016386;28;20108;-89
2023/09/18 05:45:23;;;;;;;31.27;21.20;;;;;;;-142.57;100.00;115900.28;5016616;28;20133;-81
2023/09/18 05:47:50;;;;;;;44.42;21.75;;;;;;;-142.57;100.00;115900.28;5017801;28;20046;-86
2023/09/18 05:50:16;;;;;;;29.20;20.83;;;;;;;-142.57;100.00;115900.28;5016412;28;20125;-86
2023/09/18 05:52:47;;;;;;;29.73;21.08;;;;;;;-142.57;100.00;115900.28;5016530;28;20382;-88
2023/09/18 05:55:14;;;;;;;30.08;21.02;;;;;;;-142.57;100.00;115900.28;5000272;28;20107;-90
2023/09/18 05:57:40;;;;;;;38.28;21.55;;;;;;;-142.57;100.00;115900.28;5000111;28;20120;-84
2023/09/18 06:00:06;;;;;;;32.72;22.27;;;;;;;-142.57;100.00;115900.28;5015795;28;20468;-85
2023/09/18 06:02:39;;;;;;;35.92;25.27;;;;;;;-142.57;100.00;115900.28;5016712;28;20140;-84
2023/09/18 06:05:06;;;;;;;35.42;26.27;;;;;;;-142.57;100.00;115900.28;5016781;28;20034;-84
2023/09/18 06:07:32;;;;;;;35.72;26.30;;;;;;;-142.57;100.00;115900.28;5015923;28;20555;-82
2023/09/18 06:09:58;;;;;;;39.30;24.73;;;;;;;-142.57;100.00;115900.28;5015817;28;20033;-82
2023/09/18 06:12:24;;;;;;;46.33;28.58;;;;;;;-142.57;100.00;115900.28;5016153;28;20034;-80
2023/09/18 06:14:50;;;;;;;42.08;26.50;;;;;;;-142.57;100.00;115900.28;5016176;28;20069;-82
2023/09/18 06:17:17;;;;;;;39.35;26.83;;;;;;;-142.57;100.00;115900.28;5016253;28;20034;-82
2023/09/18 06:19:44;;;;;;;50.83;29.23;;;;;;;-142.57;100.00;115900.28;5015485;28;20038;-78
2023/09/18 06:22:09;;;;;;;41.63;27.65;;;;;;;-142.57;100.00;115900.28;5014882;28;20026;-83
2023/09/18 06:24:35;;;;;;;45.53;31.60;;;;;;;-142.57;100.00;115900.28;5015684;28;20033;-81
2023/09/18 06:27:01;;;;;;;52.33;35.65;;;;;;;-142.57;100.00;115900.28;5015543;28;20033;-79
2023/09/18 06:29:27;;;;;;;47.00;34.35;;;;;;;-142.57;100.00;115900.28;5015528;28;20389;-81
2023/09/18 06:31:52;;;;;;;53.08;37.03;;;;;;;-142.57;100.00;115900.28;5015109;28;20393;-81
2023/09/18 06:34:18;;;;;;;58.00;36.55;;;;;;;-142.57;100.00;115900.28;5015121;28;20188;-79
2023/09/18 06:36:43;;;;;;;58.08;38.20;;;;;;;-142.57;100.00;115900.28;5015729;28;20042;-78
2023/09/18 06:39:08;;;;;;;57.70;37.83;;;;;;;-142.57;100.00;115900.28;5015582;28;20038;-81
2023/09/18 06:41:37;;;;;;;65.03;38.20;;;;;;;-142.57;100.00;115900.28;5015627;28;20448;-83
2023/09/18 06:44:03;;;;;;;55.80;35.38;;;;;;;-142.57;100.00;115900.28;5014613;28;20042;-83
2023/09/18 06:46:30;;;;;;;54.38;34.88;;;;;;;-142.57;100.00;115900.28;5015529;28;20080;-85
2023/09/18 06:48:56;;;;;;;50.15;33.20;;;;;;;-142.57;100.00;115900.28;5015543;28;20057;-86
2023/09/18 06:51:22;;;;;;;58.10;37.38;;;;;;;-142.57;100.00;115900.28;5016062;28;20449;-85
2023/09/18 06:53:48;;;;;;;50.72;34.33;;;;;;;-142.57;100.00;115900.28;5015962;28;20034;-83
2023/09/18 06:56:13;;;;;;;53.88;34.88;;;;;;;-142.57;100.00;115900.28;5015233;28;20480;-84
2023/09/18 06:58:39;;;;;;;56.17;33.80;;;;;;;-142.57;100.00;115900.28;5015136;28;20074;-83
2023/09/18 07:01:06;;;;;;;55.40;34.45;;;;;;;-142.57;100.00;115900.28;5015594;28;20072;-84
2023/09/18 07:03:35;;;;;;;51.30;34.63;;;;;;;-142.57;100.00;115900.28;5015313;28;20547;-82
2023/09/18 07:06:00;;;;;;;53.80;33.80;;;;;;;-142.57;100.00;115900.28;5006758;28;20035;-82
2023/09/18 07:08:26;;;;;;;54.65;36.78;;;;;;;-142.57;100.00;115900.28;4993900;28;20313;-83
2023/09/18 07:10:52;;;;;;;56.08;38.25;;;;;;;-142.57;100.00;115900.28;5006456;28;20062;-85
2023/09/18 07:13:17;;;;;;;53.95;37.55;;;;;;;-142.57;100.00;115900.28;5014011;28;20484;-83
2023/09/18 07:15:43;;;;;;;50.60;37.00;;;;;;;-142.57;100.00;115900.28;5014962;28;20481;-82
2023/09/18 07:18:13;;;;;;;58.35;38.05;;;;;;;-142.57;100.00;115900.28;5014812;28;20026;-83
2023/09/18 07:20:40;;;;;;;56.65;36.67;;;;;;;-142.57;100.00;115900.28;4997004;28;20567;-82
2023/09/18 07:23:05;;;;;;;60.88;34.90;;;;;;;-142.57;100.00;115900.28;5014529;28;20030;-81
2023/09/18 07:25:31;;;;;;;46.35;32.30;;;;;;;-142.57;100.00;115900.28;5014346;28;20037;-82
2023/09/18 07:27:57;;;;;;;42.83;29.85;;;;;;;-142.57;100.00;115900.28;5014793;28;20030;-76
2023/09/18 07:30:26;;;;;;;46.45;30.52;;;;;;;-142.57;100.00;115900.28;5013927;28;20049;-81
2023/09/18 07:32:56;;;;;;;40.25;27.55;;;;;;;-142.57;100.00;115900.28;5014029;28;20038;-82
2023/09/18 07:35:22;;;;;;;48.92;27.95;;;;;;;-142.57;100.00;115900.28;5014150;28;20080;-80
2023/09/18 07:37:48;;;;;;;40.67;27.17;;;;;;;-142.57;100.00;115900.28;5014054;28;20046;-78
2023/09/18 07:40:13;;;;;;;43.10;27.02;;;;;;;-142.57;100.00;115900.28;5014042;28;20404;-81
2023/09/18 07:42:39;;;;;;;47.00;25.23;;;;;;;-142.57;100.00;115900.28;5014105;28;20116;-77
2023/09/18 07:45:05;;;;;;;43.47;23.92;;;;;;;-142.57;100.00;115900.28;5013969;28;20044;-79
2023/09/18 07:47:30;;;;;;;38.28;22.02;;;;;;;-142.57;100.00;115900.28;5014086;28;20033;-78
2023/09/18 07:49:57;;;;;;;33.97;19.95;;;;;;;-142.57;100.00;115900.28;5013724;28;20026;-78
2023/09/18 07:52:22;;;;;;;36.00;18.63;;;;;;;-142.57;100.00;115900.28;5013934;28;20041;-82
2023/09/18 07:54:48;;;;;;;26.85;17.85;;;;;;;-142.57;100.00;115900.28;5013499;28;20034;-80
2023/09/18 07:57:13;;;;;;;30.58;16.05;;;;;;;-142.57;100.00;115900.28;5014094;28;20032;-82
2023/09/18 07:59:42;;;;;;;33.20;16.63;;;;;;;-142.57;100.00;115900.28;5013531;28;20065;-78
2023/09/18 08:02:09;;;;;;;33.97;16.70;;;;;;;-142.57;100.00;115900.28;5013784;28;20044;-80
2023/09/18 08:04:35;;;;;;;30.30;16.95;;;;;;;-142.57;100.00;115900.28;5013689;28;20030;-79
2023/09/18 08:07:07;;;;;;;27.58;17.02;;;;;;;-142.57;100.00;115900.28;5012682;28;20430;-79
2023/09/18 08:09:36;;;;;;;29.10;16.58;;;;;;;-142.57;100.00;115900.28;5014154;28;20125;-78
2023/09/18 08:12:03;;;;;;;26.33;16.33;;;;;;;-142.57;100.00;115900.28;5012811;28;20496;-80
2023/09/18 08:14:29;;;;;;;29.20;16.70;;;;;;;-142.57;100.00;115900.28;5014119;28;20041;-79
2023/09/18 08:16:58;;;;;;;33.30;16.08;;;;;;;-142.57;100.00;115900.28;5014011;28;20042;-78
2023/09/18 08:19:27;;;;;;;29.30;16.45;;;;;;;-142.57;100.00;115900.28;5016133;28;20034;-79
2023/09/18 08:21:54;;;;;;;30.27;16.90;;;;;;;-142.57;100.00;115900.28;5028850;28;20053;-78
2023/09/18 08:24:20;;;;;;;34.58;17.27;;;;;;;-142.57;100.00;115900.28;5032835;28;20040;-80
2023/09/18 08:26:46;;;;;;;30.90;16.73;;;;;;;-142.57;100.00;115900.28;5034984;28;20045;-78
2023/09/18 08:29:12;;;;;;;28.40;17.45;;;;;;;-142.57;100.00;115900.28;5036317;28;20033;-78
2023/09/18 08:31:39;;;;;;;28.17;18.23;;;;;;;-142.57;100.00;115900.28;5021213;28;20030;-79
2023/09/18 08:34:04;;;;;;;30.88;16.55;;;;;;;-142.57;100.00;115900.28;5014601;28;20049;-78
2023/09/18 08:36:31;;;;;;;29.77;18.63;;;;;;;-142.57;100.00;115900.28;5005475;28;20034;-84
2023/09/18 08:38:56;;;;;;;32.10;17.77;;;;;;;-142.57;100.00;115900.28;5013280;28;20096;-79
2023/09/18 08:41:26;;;;;;;30.65;17.65;;;;;;;-142.57;100.00;115900.28;5011719;28;20034;-77
2023/09/18 08:43:55;;;;;;;29.13;17.50;;;;;;;-142.57;100.00;115900.28;5013016;28;20420;-79
2023/09/18 08:46:21;;;;;;;29.40;18.20;;;;;;;-142.57;100.00;115900.28;5012940;28;20034;-81
2023/09/18 08:48:49;;;;;;;35.20;18.98;;;;;;;-142.57;100.00;115900.28;5013118;28;20361;-81
2023/09/18 08:51:17;;;;;;;27.55;18.85;;;;;;;-142.57;100.00;115900.28;5013305;28;20060;-80
2023/09/18 08:53:43;;;;;;;38.00;18.98;;;;;;;-142.57;100.00;115900.28;5010458;28;20388;-79
2023/09/18 08:56:10;;;;;;;26.45;18.70;;;;;;;-142.57;100.00;115900.28;5013092;28;20095;-77
2023/09/18 08:58:39;;;;;;;34.65;19.10;;;;;;;-142.57;100.00;115900.28;5012799;28;20358;-81
2023/09/18 09:01:09;;;;;;;33.55;18.10;;;;;;;-142.57;100.00;115900.28;5012426;28;20069;-82
2023/09/18 09:03:39;;;;;;;32.42;19.90;;;;;;;-142.57;100.00;115900.28;5012457;28;20489;-80
2023/09/18 09:06:09;;;;;;;34.05;19.25;;;;;;;-142.57;100.00;115900.28;5012504;28;20033;-80
2023/09/18 09:08:36;;;;;;;38.17;19.65;;;;;;;-142.57;100.00;115900.28;5013080;28;20482;-80
2023/09/18 09:11:02;;;;;;;32.60;19.38;;;;;;;-142.57;100.00;115900.28;5012792;28;20026;-78
2023/09/18 09:13:28;;;;;;;43.67;18.45;;;;;;;-142.57;100.00;115900.28;5013292;28;20029;-81
2023/09/18 09:15:58;;;;;;;30.58;17.23;;;;;;;-142.57;100.00;115900.28;5012987;28;20036;-78
2023/09/18 09:18:25;;;;;;;34.20;18.60;;;;;;;-142.57;100.00;115900.28;5012782;28;20524;-78
2023/09/18 09:20:57;;;;;;;27.63;15.75;;;;;;;-142.57;100.00;115900.28;5011584;28;20547;-80
2023/09/18 09:23:23;;;;;;;27.77;16.65;;;;;;;-142.57;100.00;115900.28;5011784;28;20034;-80
2023/09/18 09:25:48;;;;;;;28.27;16.00;;;;;;;-142.57;100.00;115900.28;5013009;28;20029;-79
2023/09/18 09:28:14;;;;;;;30.50;18.83;;;;;;;-142.57;100.00;115900.28;5012050;28;20518;-78
2023/09/18 09:30:39;;;;;;;36.20;21.60;;;;;;;-142.57;100.00;115900.28;5016271;28;20056;-81
2023/09/18 09:33:07;;;;;;;39.72;24.52;;;;;;;-142.57;100.00;115900.28;5016436;28;20041;-78
2023/09/18 09:35:36;;;;;;;38.30;26.80;;;;;;;-142.57;100.00;115900.28;5016082;28;20022;-76
2023/09/18 09:38:09;;;;;;;45.88;27.45;;;;;;;-142.57;100.00;115900.28;5016126;28;20084;-77
2023/09/18 09:40:39;;;;;;;44.58;29.58;;;;;;;-142.57;100.00;115900.28;5016344;28;20034;-79
2023/09/18 09:43:08;;;;;;;48.35;30.02;;;;;;;-142.57;100.00;115900.28;5016320;28;20456;-79
2023/09/18 09:45:38;;;;;;;53.08;31.70;;;;;;;-142.57;100.00;115900.28;5016255;28;20453;-80
2023/09/18 09:48:05;;;;;;;46.50;30.90;;;;;;;-142.57;100.00;115900.28;5016217;28;20037;-79
2023/09/18 09:50:32;;;;;;;42.97;29.08;;;;;;;-142.57;100.00;115900.28;5015940;28;20507;-82
2023/09/18 09:52:58;;;;;;;49.45;30.60;;;;;;;-142.57;100.00;115900.28;5015865;28;20097;-80
2023/09/18 09:55:31;;;;;;;49.58;29.70;;;;;;;-142.57;100.00;115900.28;5016378;28;20038;-79
2023/09/18 09:58:01;;;;;;;50.47;29.92;;;;;;;-142.57;100.00;115900.28;5015796;28;20030;-78
2023/09/18 10:00:51;;;;;;;50.80;29.63;;;;;;;-142.57;100.00;115900.28;5015844;28;20045;-82
2023/09/18 10:03:18;;;;;;;45.83;30.02;;;;;;;-142.57;100.00;115900.28;5015631;28;20048;-81
2023/09/18 10:05:46;;;;;;;52.58;30.77;;;;;;;-142.57;100.00;115900.28;5015571;28;20034;-79
2023/09/18 10:08:18;;;;;;;54.80;31.23;;;;;;;-142.57;100.00;115900.28;5015646;28;20034;-82
2023/09/18 10:10:48;;;;;;;50.15;31.70;;;;;;;-142.57;100.00;115900.28;5015665;28;20048;-79
2023/09/18 10:13:31;;;;;;;47.25;29.90;;;;;;;-142.57;100.00;115900.28;5015229;28;20112;-79
2023/09/18 10:16:00;;;;;;;50.67;29.45;;;;;;;-142.57;100.00;115900.28;5015485;28;20488;-80
2023/09/18 10:18:44;;;;;;;49.33;28.02;;;;;;;-142.57;100.00;115900.28;5023165;28;20057;-79
2023/09/18 10:21:32;;;;;;;55.33;26.33;;;;;;;-142.57;100.00;115900.28;5014315;28;20041;-80
2023/09/18 10:24:20;;;;;;;50.90;26.30;;;;;;;-142.57;100.00;115900.28;5015154;28;20030;-80
2023/09/18 10:26:56;;;;;;;45.85;23.98;;;;;;;-142.57;100.00;115900.28;5015231;28;20029;-79
2023/09/18 10:29:23;;;;;;;44.47;23.80;;;;;;;-142.57;100.00;115900.28;5015284;28;20533;-82
2023/09/18 10:31:50;;;;;;;39.10;22.48;;;;;;;-142.57;100.00;115900.28;5015230;28;20445;-82
2023/09/18 10:34:18;;;;;;;38.72;19.80;;;;;;;-142.57;100.00;115900.28;5015132;28;20187;-83
2023/09/18 10:36:47;;;;;;;47.35;18.02;;;;;;;-142.57;96.96;115900.28;5016685;28;20504;-81
2023/09/18 10:39:19;;;;;;;47.50;13.98;;;;;;;-142.57;93.33;115900.28;5017612;28;20515;-80
2023/09/18 10:41:54;;;;;;;47.53;12.65;;;;;;;-142.57;90.38;115900.28;5019878;28;20064;-82
2023/09/18 10:44:20;;;;;;;40.88;12.90;;;;;;;-142.57;91.62;115900.28;5014390;28;20042;-81
2023/09/18 10:46:51;;;;;;;40.25;10.35;;;;;;;-142.57;86.75;115900.28;5015183;28;20480;-82